Time;durP1;ratioP1;P1;durP2;ratioP2;P2;SDS_P1;SDS_P2;PMS_P1;PMS_P2;Temp;Humidity;BMP_temperature;BMP_pressure;BME280_temperature;BME280_humidity;BME280_pressure;Samples;Min_cycle;Max_cycle;Signal;HPM_P1;HPM_P2
2021/11/30 00:00:01;;;;;;;1.60;1.30;;;;;19.30;99971.00;;;;2079221;28;20839;-46
2021/11/30 00:01:02;;;;;;;1.73;1.40;;;;;19.20;99969.00;;;;2071021;28;20222;-48
2021/11/30 00:02:03;;;;;;;2.08;1.40;;;;;19.20;99967.00;;;;2071742;28;20218;-47
2021/11/30 00:03:03;;;;;;;1.60;1.43;;;;;19.20;99967.00;;;;2071306;28;20276;-46
2021/11/30 00:04:04;;;;;;;1.90;1.63;;;;;19.30;99971.00;;;;2071745;28;20244;-48
2021/11/30 00:05:05;;;;;;;1.47;1.37;;;;;19.20;99965.00;;;;2071658;28;20718;-47
2021/11/30 00:06:06;;;;;;;1.80;1.23;;;;;19.20;99961.00;;;;2079244;28;20278;-49
2021/11/30 00:07:06;;;;;;;3.10;1.70;;;;;19.20;99964.00;;;;2070441;28;20288;-45
2021/11/30 00:08:07;;;;;;;1.70;1.50;;;;;19.20;99959.00;;;;2071708;28;20463;-44
2021/11/30 00:10:45;;;;;;;1.85;1.58;;;;;19.20;99962.00;;;;2076929;28;20224;-45
2021/11/30 00:11:45;;;;;;;1.60;1.40;;;;;19.20;99955.00;;;;2071806;28;20233;-45
2021/11/30 00:12:45;;;;;;;1.60;1.40;;;;;19.20;99951.00;;;;2071637;28;20233;-44
2021/11/30 00:13:46;;;;;;;1.77;1.40;;;;;19.20;99947.00;;;;2071572;28;20241;-47
2021/11/30 00:14:49;;;;;;;1.83;1.47;;;;;19.20;99954.00;;;;2071624;28;20214;-45
2021/11/30 00:15:52;;;;;;;1.65;1.45;;;;;19.20;99951.00;;;;2071326;28;20230;-48
2021/11/30 00:16:52;;;;;;;1.60;1.50;;;;;19.20;99940.00;;;;2075110;28;20220;-49
2021/11/30 00:17:52;;;;;;;1.70;1.60;;;;;19.20;99939.00;;;;2078858;28;20587;-49
2021/11/30 00:18:53;;;;;;;2.13;1.37;;;;;19.20;99949.00;;;;2077385;28;20209;-47
2021/11/30 00:19:53;;;;;;;2.33;1.50;;;;;19.10;99947.00;;;;2069318;28;20229;-45
2021/11/30 00:20:53;;;;;;;1.60;1.50;;;;;19.10;99941.00;;;;2070680;28;20241;-44
2021/11/30 00:21:54;;;;;;;1.67;1.30;;;;;19.20;99946.00;;;;2070440;28;20256;-44
2021/11/30 00:22:55;;;;;;;2.33;1.40;;;;;19.20;99948.00;;;;2071039;28;20276;-45
2021/11/30 00:23:55;;;;;;;2.30;1.70;;;;;19.20;99942.00;;;;2069656;28;20509;-45
2021/11/30 00:24:57;;;;;;;1.90;1.40;;;;;19.10;99939.00;;;;2071344;28;20294;-46
2021/11/30 00:25:57;;;;;;;1.52;1.42;;;;;19.10;99938.00;;;;2070283;28;20214;-45
2021/11/30 00:26:58;;;;;;;1.73;1.60;;;;;19.20;99936.00;;;;2062604;28;20277;-46
2021/11/30 00:27:59;;;;;;;2.00;1.80;;;;;19.20;99940.00;;;;2066892;28;20206;-46
2021/11/30 00:28:59;;;;;;;1.60;1.50;;;;;19.20;99928.00;;;;2075045;28;20221;-46
2021/11/30 00:30:00;;;;;;;1.77;1.60;;;;;19.10;99938.00;;;;2079250;28;20208;-46
2021/11/30 00:31:00;;;;;;;2.10;1.40;;;;;19.10;99950.00;;;;2071167;28;20310;-45
2021/11/30 00:32:01;;;;;;;1.90;1.53;;;;;18.90;99940.00;;;;2075446;28;20210;-45
2021/11/30 00:33:02;;;;;;;1.73;1.42;;;;;19.10;99943.00;;;;2070021;28;20214;-50
2021/11/30 00:34:03;;;;;;;2.20;1.30;;;;;19.10;99939.00;;;;2069863;28;20218;-48
2021/11/30 00:35:03;;;;;;;2.67;1.53;;;;;19.10;99945.00;;;;2069297;28;20225;-46
2021/11/30 00:36:03;;;;;;;2.43;1.53;;;;;19.10;99942.00;;;;2070312;28;20226;-48
2021/11/30 00:37:04;;;;;;;2.90;1.80;;;;;19.10;99935.00;;;;2073769;28;20213;-47
2021/11/30 00:38:04;;;;;;;2.20;1.77;;;;;19.20;99947.00;;;;2079153;28;20209;-45
2021/11/30 00:39:05;;;;;;;2.10;1.90;;;;;19.10;99949.00;;;;2071480;28;20297;-46
2021/11/30 00:40:06;;;;;;;1.83;1.60;;;;;19.10;99945.00;;;;2067152;28;20245;-46
2021/11/30 00:41:07;;;;;;;2.23;1.70;;;;;19.10;99943.00;;;;2070529;28;20551;-45
2021/11/30 00:42:08;;;;;;;2.03;1.57;;;;;19.10;99944.00;;;;2075063;28;20459;-46
2021/11/30 00:43:09;;;;;;;1.73;1.52;;;;;19.10;99945.00;;;;2070937;28;20698;-45
2021/11/30 00:44:09;;;;;;;1.98;1.75;;;;;19.10;99946.00;;;;2068573;28;20249;-48
2021/11/30 00:45:12;;;;;;;2.40;1.60;;;;;19.10;99954.00;;;;2071498;28;20211;-46
2021/11/30 00:46:17;;;;;;;2.63;1.60;;;;;19.10;99954.00;;;;2071024;28;20222;-49
2021/11/30 00:47:23;;;;;;;2.08;1.33;;;;;19.10;99952.00;;;;2078103;28;20721;-47
2021/11/30 00:48:30;;;;;;;2.67;1.65;;;;;19.10;99947.00;;;;2078218;28;20279;-46
2021/11/30 00:49:30;;;;;;;1.90;1.60;;;;;19.10;99946.00;;;;2076528;28;20277;-46
2021/11/30 00:50:31;;;;;;;3.13;1.63;;;;;19.10;99948.00;;;;2069043;28;20223;-46
2021/11/30 00:51:32;;;;;;;1.70;1.53;;;;;19.10;99949.00;;;;2070246;28;20222;-45
2021/11/30 00:52:33;;;;;;;2.30;1.70;;;;;19.10;99935.00;;;;2071228;28;20686;-46
2021/11/30 00:53:34;;;;;;;2.67;1.80;;;;;19.10;99946.00;;;;2070996;28;20232;-46
2021/11/30 00:54:34;;;;;;;1.70;1.50;;;;;19.10;99932.00;;;;2070769;28;20221;-47
2021/11/30 00:55:34;;;;;;;2.20;1.80;;;;;19.10;99932.00;;;;2071237;28;20238;-48
2021/11/30 00:56:35;;;;;;;1.73;1.60;;;;;19.10;99934.00;;;;2071430;28;20296;-46
2021/11/30 00:57:39;;;;;;;2.60;1.60;;;;;19.10;99940.00;;;;2070980;28;20242;-45
2021/11/30 00:58:40;;;;;;;3.03;2.00;;;;;19.10;99925.00;;;;2071276;28;20229;-45
2021/11/30 00:59:40;;;;;;;2.00;1.70;;;;;18.90;99931.00;;;;2070868;28;20713;-45
2021/11/30 01:00:43;;;;;;;1.83;1.43;;;;;19.10;99917.00;;;;2068359;28;20221;-49
2021/11/30 01:01:45;;;;;;;2.08;1.60;;;;;19.10;99920.00;;;;2069523;28;20472;-46
2021/11/30 01:02:46;;;;;;;2.35;1.35;;;;;19.10;99924.00;;;;2075570;28;20210;-46
2021/11/30 01:03:46;;;;;;;1.88;1.67;;;;;19.10;99912.00;;;;2070613;28;20233;-46
2021/11/30 01:04:47;;;;;;;2.07;1.53;;;;;19.00;99914.00;;;;2067716;28;20784;-47
2021/11/30 01:05:48;;;;;;;1.80;1.70;;;;;19.00;99919.00;;;;2079244;28;20665;-45
2021/11/30 01:06:49;;;;;;;2.17;1.90;;;;;19.10;99923.00;;;;2079278;28;20236;-45
2021/11/30 01:07:49;;;;;;;2.43;1.50;;;;;19.10;99921.00;;;;2078315;28;20221;-46
2021/11/30 01:08:49;;;;;;;2.60;1.60;;;;;19.00;99922.00;;;;2078486;28;20565;-45
2021/11/30 01:09:50;;;;;;;3.80;1.90;;;;;19.00;99905.00;;;;2076878;28;20696;-46
2021/11/30 01:10:51;;;;;;;1.80;1.63;;;;;19.00;99917.00;;;;2069137;28;20222;-45
2021/11/30 01:11:51;;;;;;;2.35;1.85;;;;;19.00;99915.00;;;;2071045;28;20718;-46
2021/11/30 01:12:52;;;;;;;2.23;1.63;;;;;19.00;99918.00;;;;2071305;28;20273;-48
2021/11/30 01:13:52;;;;;;;1.83;1.60;;;;;19.00;99918.00;;;;2070921;28;20899;-46
2021/11/30 01:14:53;;;;;;;2.23;1.90;;;;;19.00;99920.00;;;;2070125;28;20214;-49
2021/11/30 01:15:54;;;;;;;2.10;1.83;;;;;19.00;99920.00;;;;2067491;28;20725;-45
2021/11/30 01:16:56;;;;;;;1.73;1.47;;;;;19.00;99908.00;;;;2078590;28;20216;-46
2021/11/30 01:17:56;;;;;;;1.80;1.60;;;;;19.00;99906.00;;;;2072336;28;20356;-47
2021/11/30 01:18:56;;;;;;;2.10;1.80;;;;;19.00;99909.00;;;;2071013;28;20260;-46
2021/11/30 01:19:57;;;;;;;2.53;1.70;;;;;19.00;99887.00;;;;2070988;28;20210;-47
2021/11/30 01:20:58;;;;;;;2.17;1.83;;;;;19.00;99896.00;;;;2069810;28;20218;-46
2021/11/30 01:21:59;;;;;;;1.70;1.60;;;;;19.00;99898.00;;;;2071114;28;20618;-46
2021/11/30 01:23:00;;;;;;;2.00;1.83;;;;;19.00;99899.00;;;;2070616;28;20214;-47
2021/11/30 01:24:01;;;;;;;2.90;1.70;;;;;19.00;99891.00;;;;2070120;28;20834;-47
2021/11/30 01:25:01;;;;;;;1.83;1.73;;;;;19.00;99887.00;;;;2069773;28;20659;-46
2021/11/30 01:26:02;;;;;;;2.17;1.70;;;;;19.00;99901.00;;;;2070648;28;20276;-47
2021/11/30 01:27:04;;;;;;;2.05;1.70;;;;;19.00;99895.00;;;;2066076;28;20296;-46
2021/11/30 01:28:04;;;;;;;2.10;1.90;;;;;19.00;99895.00;;;;2070404;28;20297;-46
2021/11/30 01:29:05;;;;;;;2.83;2.13;;;;;19.00;99900.00;;;;2061805;28;20226;-46
2021/11/30 01:30:07;;;;;;;2.73;1.77;;;;;19.00;99895.00;;;;2068783;28;20234;-46
2021/11/30 01:31:07;;;;;;;1.98;1.85;;;;;19.00;99898.00;;;;2066475;28;20706;-46
2021/11/30 01:32:08;;;;;;;1.80;1.70;;;;;19.00;99891.00;;;;2070055;28;20221;-46
2021/11/30 01:33:09;;;;;;;1.70;1.60;;;;;19.00;99891.00;;;;2060539;28;20301;-47
2021/11/30 01:34:09;;;;;;;1.97;1.77;;;;;19.00;99895.00;;;;2068775;28;20244;-46
2021/11/30 01:35:10;;;;;;;2.53;1.73;;;;;19.00;99903.00;;;;2073513;28;20214;-46
2021/11/30 01:36:10;;;;;;;2.37;1.90;;;;;19.00;99894.00;;;;2069610;28;20289;-46
2021/11/30 01:37:15;;;;;;;2.30;2.10;;;;;18.80;99904.00;;;;2070209;28;20225;-46
2021/11/30 01:38:17;;;;;;;2.50;1.70;;;;;19.00;99893.00;;;;2070808;28;20245;-47
2021/11/30 01:39:17;;;;;;;2.33;1.88;;;;;18.90;99885.00;;;;2070734;28;20214;-47
2021/11/30 01:40:19;;;;;;;1.70;1.53;;;;;18.90;99886.00;;;;2070313;28;20207;-47
2021/11/30 01:41:20;;;;;;;2.30;1.60;;;;;19.00;99887.00;;;;2070537;28;20302;-46
2021/11/30 01:42:21;;;;;;;2.27;1.63;;;;;19.00;99878.00;;;;2072948;28;20593;-47
2021/11/30 01:43:25;;;;;;;2.17;1.80;;;;;19.00;99880.00;;;;2079200;28;20209;-46
2021/11/30 01:44:38;;;;;;;1.83;1.40;;;;;19.00;99887.00;;;;2077475;28;20448;-47
2021/11/30 01:49:29;;;;;;;2.15;1.70;;;;;19.00;99885.00;;;;2078714;28;20312;-47
2021/11/30 01:50:35;;;;;;;2.78;2.10;;;;;18.90;99877.00;;;;2069283;28;20210;-47
2021/11/30 01:51:35;;;;;;;1.83;1.67;;;;;18.90;99881.00;;;;2072178;28;20218;-47
2021/11/30 01:52:36;;;;;;;1.50;1.40;;;;;18.90;99874.00;;;;2078467;28;20213;-47
2021/11/30 01:53:36;;;;;;;2.60;1.83;;;;;18.90;99868.00;;;;2077507;28;20214;-48
2021/11/30 01:54:39;;;;;;;2.10;1.77;;;;;18.90;99867.00;;;;2067396;28;20272;-49
2021/11/30 01:55:43;;;;;;;2.40;2.20;;;;;18.90;99872.00;;;;2075310;28;20762;-47
2021/11/30 01:56:43;;;;;;;2.00;1.73;;;;;18.90;99872.00;;;;2079002;28;20217;-47
2021/11/30 01:57:44;;;;;;;2.00;1.60;;;;;18.90;99866.00;;;;2079123;28;20252;-47
2021/11/30 01:58:44;;;;;;;3.27;2.20;;;;;18.90;99869.00;;;;2077301;28;20221;-47
2021/11/30 01:59:45;;;;;;;2.23;1.53;;;;;18.90;99863.00;;;;2078038;28;20206;-47
2021/11/30 02:00:46;;;;;;;2.47;1.83;;;;;18.90;99865.00;;;;2076938;28;20475;-47
2021/11/30 02:01:47;;;;;;;2.30;2.13;;;;;18.90;99867.00;;;;2078839;28;20229;-47
2021/11/30 02:02:47;;;;;;;2.20;2.00;;;;;18.90;99852.00;;;;2079010;28;20202;-47
2021/11/30 02:03:48;;;;;;;2.20;1.90;;;;;18.90;99862.00;;;;2078219;28;20210;-46
2021/11/30 02:04:48;;;;;;;2.13;1.77;;;;;18.90;99858.00;;;;2078331;28;20210;-47
2021/11/30 02:05:49;;;;;;;2.67;2.23;;;;;18.90;99854.00;;;;2078950;28;20688;-46
2021/11/30 02:06:50;;;;;;;2.30;1.80;;;;;18.90;99852.00;;;;2077936;28;20210;-46
2021/11/30 02:07:50;;;;;;;1.90;1.60;;;;;18.90;99852.00;;;;2070265;28;20253;-47
2021/11/30 02:08:51;;;;;;;1.83;1.63;;;;;18.90;99846.00;;;;2070263;28;20555;-47
2021/11/30 02:09:51;;;;;;;2.63;1.90;;;;;18.90;99855.00;;;;2070056;28;20413;-47
2021/11/30 02:10:54;;;;;;;1.70;1.60;;;;;18.90;99850.00;;;;2068959;28;20217;-47
2021/11/30 02:11:55;;;;;;;2.10;1.75;;;;;18.90;99838.00;;;;2070727;28;20225;-46
2021/11/30 02:12:56;;;;;;;3.03;1.90;;;;;18.90;99838.00;;;;2072318;28;20711;-46
2021/11/30 02:13:57;;;;;;;2.07;1.90;;;;;18.90;99841.00;;;;2078655;28;20293;-47
2021/11/30 02:14:57;;;;;;;1.80;1.60;;;;;18.80;99833.00;;;;2078859;28;20205;-47
2021/11/30 02:16:00;;;;;;;2.17;1.80;;;;;18.90;99823.00;;;;2076987;28;21157;-47
2021/11/30 02:17:01;;;;;;;2.00;1.73;;;;;18.90;99824.00;;;;2078873;28;20220;-46
2021/11/30 02:18:04;;;;;;;2.20;1.80;;;;;18.90;99833.00;;;;2075798;28;20214;-46
2021/11/30 02:19:04;;;;;;;2.22;1.90;;;;;18.90;99823.00;;;;2070324;28;20457;-47
2021/11/30 02:20:05;;;;;;;2.00;1.80;;;;;18.90;99828.00;;;;2070861;28;20663;-47
2021/11/30 02:21:07;;;;;;;3.10;1.98;;;;;18.90;99819.00;;;;2067886;28;20252;-48
2021/11/30 02:22:11;;;;;;;2.30;1.80;;;;;18.90;99824.00;;;;2070920;28;20210;-46
2021/11/30 02:23:24;;;;;;;2.85;1.77;;;;;18.90;99817.00;;;;2070475;28;20458;-48
2021/11/30 02:24:24;;;;;;;1.80;1.70;;;;;18.90;99810.00;;;;2074490;28;20217;-47
2021/11/30 02:25:24;;;;;;;1.90;1.80;;;;;18.90;99812.00;;;;2078360;28;20249;-46
2021/11/30 02:26:25;;;;;;;2.13;1.90;;;;;18.90;99809.00;;;;2078841;28;20225;-47
2021/11/30 02:27:26;;;;;;;1.93;1.73;;;;;18.90;99822.00;;;;2075721;28;20590;-47
2021/11/30 02:28:27;;;;;;;3.38;2.22;;;;;18.90;99807.00;;;;2070517;28;20314;-47
2021/11/30 02:29:27;;;;;;;1.83;1.73;;;;;18.90;99805.00;;;;2067193;28;20222;-47
2021/11/30 02:30:28;;;;;;;1.90;1.70;;;;;18.90;99807.00;;;;2074272;28;20214;-47
2021/11/30 02:31:37;;;;;;;2.83;1.90;;;;;18.90;99805.00;;;;2078937;28;20279;-46
2021/11/30 02:32:38;;;;;;;2.00;1.75;;;;;18.90;99823.00;;;;2078904;28;20216;-46
2021/11/30 02:33:38;;;;;;;2.23;1.83;;;;;18.90;99796.00;;;;2078893;28;20224;-47
2021/11/30 02:34:39;;;;;;;3.10;2.10;;;;;18.90;99803.00;;;;2078750;28;20229;-47
2021/11/30 02:35:39;;;;;;;1.80;1.70;;;;;18.80;99789.00;;;;2078134;28;20398;-46
2021/11/30 02:37:49;;;;;;;2.78;1.90;;;;;18.80;99780.00;;;;2076995;28;20464;-47
2021/11/30 02:38:51;;;;;;;1.85;1.50;;;;;18.90;99783.00;;;;2073984;28;20206;-47
2021/11/30 02:39:51;;;;;;;2.05;1.85;;;;;18.90;99785.00;;;;2070375;28;20226;-46
2021/11/30 02:40:53;;;;;;;2.20;2.00;;;;;18.80;99777.00;;;;2068976;28;20224;-47
2021/11/30 02:41:53;;;;;;;1.98;1.63;;;;;18.80;99773.00;;;;2068544;28;20218;-46
2021/11/30 02:42:54;;;;;;;1.90;1.70;;;;;18.90;99775.00;;;;2069563;28;20206;-46
2021/11/30 02:43:55;;;;;;;1.90;1.70;;;;;18.90;99773.00;;;;2071472;28;20225;-47
2021/11/30 02:44:55;;;;;;;2.00;1.73;;;;;18.80;99767.00;;;;2070772;28;20294;-46
2021/11/30 02:45:56;;;;;;;2.10;1.60;;;;;18.90;99778.00;;;;2070912;28;20725;-47
2021/11/30 02:46:58;;;;;;;1.77;1.40;;;;;18.80;99756.00;;;;2070230;28;20215;-46
2021/11/30 02:47:59;;;;;;;1.75;1.60;;;;;18.90;99762.00;;;;2070671;28;20217;-47
2021/11/30 02:48:59;;;;;;;1.52;1.40;;;;;18.90;99758.00;;;;2075061;28;20201;-47
2021/11/30 02:50:00;;;;;;;1.93;1.73;;;;;18.80;99758.00;;;;2077811;28;20723;-47
2021/11/30 02:51:05;;;;;;;1.80;1.60;;;;;18.90;99746.00;;;;2074075;28;20209;-47
2021/11/30 02:52:09;;;;;;;2.33;1.75;;;;;18.90;99736.00;;;;2075237;28;20221;-46
2021/11/30 02:53:15;;;;;;;1.92;1.70;;;;;18.90;99738.00;;;;2074142;28;20246;-47
2021/11/30 02:54:17;;;;;;;1.70;1.52;;;;;18.80;99726.00;;;;2068521;28;20214;-47
2021/11/30 02:55:17;;;;;;;1.70;1.60;;;;;18.80;99733.00;;;;2069730;28;20234;-47
2021/11/30 02:56:17;;;;;;;2.50;1.60;;;;;18.80;99720.00;;;;2077732;28;20213;-46
2021/11/30 02:57:18;;;;;;;1.80;1.70;;;;;18.80;99725.00;;;;2078432;28;20221;-46
2021/11/30 02:58:19;;;;;;;2.50;1.58;;;;;18.80;99723.00;;;;2078748;28;20317;-47
2021/11/30 02:59:19;;;;;;;1.77;1.50;;;;;18.80;99717.00;;;;2075738;28;20718;-47
2021/11/30 03:00:20;;;;;;;2.37;1.57;;;;;18.90;99721.00;;;;2076519;28;20604;-47
2021/11/30 03:01:21;;;;;;;2.30;1.60;;;;;18.80;99718.00;;;;2078205;28;20455;-48
2021/11/30 03:02:24;;;;;;;2.67;1.60;;;;;18.80;99710.00;;;;2078620;28;20262;-47
2021/11/30 03:03:27;;;;;;;2.70;2.10;;;;;18.80;99720.00;;;;2068467;28;20479;-46
2021/11/30 03:04:28;;;;;;;1.98;1.70;;;;;18.80;99711.00;;;;2063783;28;20610;-46
2021/11/30 03:05:28;;;;;;;1.70;1.60;;;;;18.80;99706.00;;;;2076789;28;20218;-47
2021/11/30 03:06:28;;;;;;;2.30;2.00;;;;;18.80;99710.00;;;;2077413;28;20260;-47
2021/11/30 03:07:38;;;;;;;1.97;1.57;;;;;18.80;99708.00;;;;2077498;28;20241;-46
2021/11/30 03:08:39;;;;;;;3.65;2.10;;;;;18.80;99708.00;;;;2078017;28;20279;-46
2021/11/30 03:09:40;;;;;;;1.85;1.40;;;;;18.80;99696.00;;;;2078289;28;20295;-46
2021/11/30 03:10:40;;;;;;;1.70;1.55;;;;;18.80;99708.00;;;;2066528;28;20220;-47
2021/11/30 03:11:41;;;;;;;2.07;1.77;;;;;18.80;99702.00;;;;2076902;28;20707;-46
2021/11/30 03:12:42;;;;;;;2.30;1.97;;;;;18.80;99692.00;;;;2078741;28;20471;-46
2021/11/30 03:13:42;;;;;;;1.70;1.47;;;;;18.80;99691.00;;;;2078213;28;20268;-46
2021/11/30 03:14:44;;;;;;;2.50;1.77;;;;;18.80;99692.00;;;;2077983;28;20232;-47
2021/11/30 03:15:45;;;;;;;2.40;1.67;;;;;18.80;99690.00;;;;2067846;28;20252;-46
2021/11/30 03:16:45;;;;;;;2.40;2.00;;;;;18.80;99684.00;;;;2069437;28;20273;-46
2021/11/30 03:17:46;;;;;;;2.23;1.63;;;;;18.80;99686.00;;;;2074813;28;20263;-47
2021/11/30 03:18:46;;;;;;;2.13;1.67;;;;;18.80;99677.00;;;;2069258;28;20308;-46
2021/11/30 03:19:47;;;;;;;1.73;1.63;;;;;18.70;99669.00;;;;2077020;28;20237;-47
2021/11/30 03:20:47;;;;;;;2.10;1.63;;;;;18.80;99670.00;;;;2077162;28;20243;-46
2021/11/30 03:21:48;;;;;;;2.30;1.37;;;;;18.80;99675.00;;;;2077790;28;20236;-46
2021/11/30 03:22:48;;;;;;;2.53;1.80;;;;;18.80;99672.00;;;;2070552;28;20206;-46
2021/11/30 03:23:49;;;;;;;2.00;1.60;;;;;18.80;99666.00;;;;2069359;28;20631;-46
2021/11/30 03:24:49;;;;;;;1.77;1.60;;;;;18.80;99657.00;;;;2069117;28;20582;-46
2021/11/30 03:25:49;;;;;;;2.20;1.60;;;;;18.80;99659.00;;;;2066351;28;20206;-46
2021/11/30 03:26:50;;;;;;;2.33;1.73;;;;;18.80;99661.00;;;;2069532;28;20624;-46
2021/11/30 03:27:50;;;;;;;1.70;1.53;;;;;18.80;99656.00;;;;2069943;28;20214;-52
2021/11/30 03:28:52;;;;;;;2.20;1.93;;;;;18.80;99657.00;;;;2070679;28;20210;-46
2021/11/30 03:29:55;;;;;;;1.95;1.48;;;;;18.80;99650.00;;;;2069578;28;20761;-48
2021/11/30 03:31:04;;;;;;;2.10;1.55;;;;;18.80;99649.00;;;;2060883;28;20222;-47
2021/11/30 03:34:27;;;;;;;2.03;1.83;;;;;18.80;99648.00;;;;2072758;28;20268;-47
2021/11/30 03:35:27;;;;;;;1.63;1.37;;;;;18.80;99651.00;;;;2074219;28;20214;-46
2021/11/30 03:36:28;;;;;;;1.63;1.37;;;;;18.80;99645.00;;;;2074607;28;20210;-46
2021/11/30 03:37:29;;;;;;;1.85;1.42;;;;;18.80;99638.00;;;;2076820;28;20244;-46
2021/11/30 03:38:29;;;;;;;2.60;1.90;;;;;18.80;99640.00;;;;2070700;28;20614;-47
2021/11/30 03:39:31;;;;;;;1.70;1.60;;;;;18.80;99634.00;;;;2077153;28;20224;-47
2021/11/30 03:40:32;;;;;;;2.33;1.40;;;;;18.70;99651.00;;;;2076935;28;20214;-46
2021/11/30 03:41:33;;;;;;;1.63;1.40;;;;;18.80;99638.00;;;;2078436;28;20855;-47
2021/11/30 03:42:34;;;;;;;2.10;1.67;;;;;18.80;99639.00;;;;2077718;28;20232;-47
2021/11/30 03:43:34;;;;;;;2.30;1.73;;;;;18.70;99636.00;;;;2077308;28;20218;-47
2021/11/30 03:44:35;;;;;;;2.10;1.90;;;;;18.80;99637.00;;;;2074571;28;20229;-47
2021/11/30 03:45:36;;;;;;;1.80;1.60;;;;;18.70;99632.00;;;;2068136;28;20717;-46
2021/11/30 03:46:36;;;;;;;2.00;1.73;;;;;18.80;99632.00;;;;2086015;28;20213;-46
2021/11/30 03:47:36;;;;;;;2.27;1.70;;;;;18.70;99617.00;;;;2080534;28;20229;-46
2021/11/30 03:48:38;;;;;;;1.63;1.53;;;;;18.80;99620.00;;;;2078208;28;20267;-46
2021/11/30 03:49:39;;;;;;;1.48;1.25;;;;;18.80;99619.00;;;;2078697;28;20201;-46
2021/11/30 03:50:39;;;;;;;2.57;1.80;;;;;18.70;99614.00;;;;2076998;28;20206;-46
2021/11/30 03:51:40;;;;;;;1.63;1.50;;;;;18.70;99613.00;;;;2077723;28;20610;-47
2021/11/30 03:52:40;;;;;;;2.03;1.77;;;;;18.70;99609.00;;;;2077872;28;20756;-46
2021/11/30 03:53:41;;;;;;;1.67;1.30;;;;;18.70;99604.00;;;;2078345;28;20226;-47
2021/11/30 03:54:41;;;;;;;1.67;1.40;;;;;18.80;99610.00;;;;2077389;28;20528;-47
2021/11/30 03:55:41;;;;;;;1.63;1.20;;;;;18.80;99592.00;;;;2077751;28;20226;-47
2021/11/30 03:56:42;;;;;;;1.47;1.37;;;;;18.70;99591.00;;;;2078263;28;20213;-47
2021/11/30 03:57:42;;;;;;;1.70;1.60;;;;;18.70;99593.00;;;;2077400;28;20214;-47
2021/11/30 03:58:43;;;;;;;1.73;1.40;;;;;18.80;99601.00;;;;2077465;28;20610;-47
2021/11/30 03:59:43;;;;;;;1.60;1.50;;;;;18.80;99605.00;;;;2077786;28;20225;-47
2021/11/30 04:00:43;;;;;;;1.50;1.40;;;;;18.80;99592.00;;;;2079011;28;21051;-48
2021/11/30 04:01:44;;;;;;;1.47;1.30;;;;;18.80;99597.00;;;;2080052;28;20965;-46
2021/11/30 04:02:44;;;;;;;2.50;1.53;;;;;18.70;99599.00;;;;2075627;28;20221;-48
2021/11/30 04:03:45;;;;;;;1.87;1.67;;;;;18.70;99603.00;;;;2080043;28;20277;-47
2021/11/30 04:04:46;;;;;;;1.70;1.57;;;;;18.70;99594.00;;;;2079754;28;20216;-46
2021/11/30 04:05:47;;;;;;;1.95;1.55;;;;;18.70;99599.00;;;;2079915;28;20237;-46
2021/11/30 04:06:48;;;;;;;1.73;1.50;;;;;18.70;99595.00;;;;2079818;28;20218;-46
2021/11/30 04:07:49;;;;;;;1.95;1.55;;;;;18.70;99589.00;;;;2079167;28;20744;-46
2021/11/30 04:08:50;;;;;;;1.93;1.50;;;;;18.70;99594.00;;;;2079535;28;20214;-46
2021/11/30 04:09:51;;;;;;;2.33;1.47;;;;;18.80;99588.00;;;;2078791;28;20747;-46
2021/11/30 04:10:51;;;;;;;2.10;1.67;;;;;18.80;99590.00;;;;2076359;28;20299;-46
2021/11/30 04:11:52;;;;;;;2.30;1.80;;;;;18.80;99587.00;;;;2079665;28;20965;-46
2021/11/30 04:12:55;;;;;;;2.10;1.27;;;;;18.80;99588.00;;;;2079631;28;20267;-46
2021/11/30 04:13:55;;;;;;;1.70;1.55;;;;;18.80;99584.00;;;;2077881;28;20225;-45
2021/11/30 04:14:56;;;;;;;3.10;1.60;;;;;18.80;99574.00;;;;2070955;28;20233;-44
2021/11/30 04:15:56;;;;;;;1.60;1.27;;;;;18.80;99574.00;;;;2071537;28;20301;-45
2021/11/30 04:16:57;;;;;;;2.33;1.27;;;;;18.70;99580.00;;;;2074487;28;20616;-48
2021/11/30 04:17:58;;;;;;;1.67;1.57;;;;;18.70;99576.00;;;;2079270;28;20216;-45
2021/11/30 04:18:59;;;;;;;1.90;1.40;;;;;18.70;99570.00;;;;2069250;28;20461;-46
2021/11/30 04:19:59;;;;;;;1.60;1.40;;;;;18.70;99578.00;;;;2068849;28;20214;-46
2021/11/30 04:21:00;;;;;;;1.67;1.50;;;;;18.80;99582.00;;;;2069875;28;20215;-46
2021/11/30 04:22:00;;;;;;;1.60;1.20;;;;;18.70;99563.00;;;;2070883;28;20286;-44
2021/11/30 04:23:01;;;;;;;1.43;1.33;;;;;18.70;99556.00;;;;2070991;28;20241;-48
2021/11/30 04:24:02;;;;;;;1.73;1.40;;;;;18.70;99554.00;;;;2070882;28;20238;-47
2021/11/30 04:25:04;;;;;;;1.47;1.30;;;;;18.70;99557.00;;;;2070726;28;20240;-50
2021/11/30 04:26:04;;;;;;;2.40;1.30;;;;;18.70;99568.00;;;;2071076;28;20217;-48
2021/11/30 04:27:05;;;;;;;1.60;1.40;;;;;18.70;99565.00;;;;2069283;28;20242;-45
2021/11/30 04:28:06;;;;;;;2.27;1.30;;;;;18.70;99562.00;;;;2070439;28;20210;-46
2021/11/30 04:29:06;;;;;;;1.70;1.30;;;;;18.70;99563.00;;;;2069818;28;20453;-48
2021/11/30 04:30:08;;;;;;;1.53;1.30;;;;;18.70;99572.00;;;;2073546;28;20210;-45
2021/11/30 04:31:08;;;;;;;1.67;1.50;;;;;18.70;99531.00;;;;2070357;28;20227;-46
2021/11/30 04:32:08;;;;;;;1.27;1.10;;;;;18.80;99554.00;;;;2070609;28;20219;-46
2021/11/30 04:33:09;;;;;;;1.60;1.50;;;;;18.70;99570.00;;;;2068951;28;20272;-49
2021/11/30 04:34:09;;;;;;;1.97;1.53;;;;;18.70;99546.00;;;;2069457;28;20238;-46
2021/11/30 04:35:10;;;;;;;1.13;1.00;;;;;18.70;99548.00;;;;2067570;28;20221;-48
2021/11/30 04:36:11;;;;;;;1.40;1.20;;;;;18.70;99549.00;;;;2070950;28;20236;-45
2021/11/30 04:37:11;;;;;;;1.67;1.50;;;;;18.70;99564.00;;;;2070082;28;20496;-44
2021/11/30 04:38:11;;;;;;;1.87;1.47;;;;;18.70;99553.00;;;;2069775;28;20213;-45
2021/11/30 04:39:12;;;;;;;1.57;1.20;;;;;18.70;99546.00;;;;2071510;28;20214;-44
2021/11/30 04:40:15;;;;;;;1.50;1.37;;;;;18.70;99549.00;;;;2069033;28;20218;-46
2021/11/30 04:41:15;;;;;;;1.30;1.13;;;;;18.70;99529.00;;;;2069982;28;20271;-46
2021/11/30 04:42:16;;;;;;;1.70;1.27;;;;;18.70;99540.00;;;;2070844;28;20264;-46
2021/11/30 04:43:17;;;;;;;1.65;1.45;;;;;18.70;99530.00;;;;2076584;28;20232;-46
2021/11/30 04:44:19;;;;;;;1.70;1.60;;;;;18.80;99546.00;;;;2079075;28;20292;-45
2021/11/30 04:45:26;;;;;;;1.70;1.23;;;;;18.70;99548.00;;;;2079281;28;20228;-44
2021/11/30 04:46:29;;;;;;;1.30;1.15;;;;;18.70;99548.00;;;;2076280;28;20226;-45
2021/11/30 04:47:33;;;;;;;1.30;1.20;;;;;18.70;99544.00;;;;2079317;28;20214;-45
2021/11/30 04:48:34;;;;;;;1.35;0.95;;;;;18.70;99547.00;;;;2076141;28;20261;-47
2021/11/30 04:50:42;;;;;;;1.30;1.10;;;;;18.70;99526.00;;;;2070631;28;20582;-46
2021/11/30 04:51:42;;;;;;;1.02;0.93;;;;;18.70;99535.00;;;;2065895;28;20714;-45
2021/11/30 04:52:45;;;;;;;1.30;1.20;;;;;18.70;99533.00;;;;2078728;28;20205;-46
2021/11/30 04:53:47;;;;;;;1.33;1.15;;;;;18.70;99549.00;;;;2073383;28;20209;-46
2021/11/30 04:54:48;;;;;;;1.23;1.00;;;;;18.70;99548.00;;;;2078264;28;20217;-46
2021/11/30 04:55:50;;;;;;;1.03;0.93;;;;;18.70;99483.00;;;;2072152;28;20579;-45
2021/11/30 04:56:51;;;;;;;1.70;0.90;;;;;18.70;99529.00;;;;2072090;28;20203;-47
2021/11/30 04:57:53;;;;;;;1.30;1.20;;;;;18.50;99524.00;;;;2071022;28;20762;-47
2021/11/30 04:58:54;;;;;;;1.42;1.20;;;;;18.70;99529.00;;;;2075287;28;20580;-46
2021/11/30 04:59:54;;;;;;;1.10;1.00;;;;;18.70;99537.00;;;;2076591;28;21048;-45
2021/11/30 05:00:55;;;;;;;1.53;0.80;;;;;18.70;99546.00;;;;2073726;28;20232;-48
2021/11/30 05:01:55;;;;;;;1.50;1.13;;;;;18.70;99529.00;;;;2078338;28;20460;-47
2021/11/30 05:02:56;;;;;;;1.40;1.13;;;;;18.70;99523.00;;;;2069972;28;20264;-47
2021/11/30 05:03:59;;;;;;;1.30;1.20;;;;;18.70;99523.00;;;;2067868;28;20241;-45
2021/11/30 05:04:59;;;;;;;1.35;1.20;;;;;18.70;99526.00;;;;2086250;28;24880;-48
2021/11/30 05:05:59;;;;;;;1.57;1.47;;;;;18.70;99527.00;;;;2071911;28;20232;-48
2021/11/30 05:07:00;;;;;;;1.20;1.10;;;;;18.70;99521.00;;;;2069848;28;20298;-46
2021/11/30 05:08:01;;;;;;;1.17;1.07;;;;;18.70;99522.00;;;;2073604;28;20213;-45
2021/11/30 05:09:02;;;;;;;2.00;1.42;;;;;18.70;99508.00;;;;2078958;28;20205;-45
2021/11/30 05:10:04;;;;;;;2.35;1.42;;;;;18.70;99526.00;;;;2077378;28;20206;-45
2021/11/30 05:11:06;;;;;;;1.30;1.20;;;;;18.70;99513.00;;;;2075073;28;20217;-48
2021/11/30 05:12:07;;;;;;;1.10;0.97;;;;;18.70;99503.00;;;;2069889;28;20232;-45
2021/11/30 05:13:08;;;;;;;1.20;1.10;;;;;18.70;99521.00;;;;2069555;28;20536;-45
2021/11/30 05:14:08;;;;;;;1.20;1.00;;;;;18.70;99504.00;;;;2069881;28;20218;-46
2021/11/30 05:15:09;;;;;;;1.40;1.30;;;;;18.70;99507.00;;;;2067396;28;20214;-46
2021/11/30 05:16:09;;;;;;;1.00;0.90;;;;;18.70;99500.00;;;;2070429;28;20759;-45